createdAt,value
2023-03-28T00:02:14.648Z,5.90
2023-03-28T00:04:43.067Z,5.50
2023-03-28T00:07:11.860Z,5.67
2023-03-28T00:09:41.521Z,5.40
2023-03-28T00:12:10.109Z,5.63
2023-03-28T00:14:38.815Z,4.83
2023-03-28T00:17:07.914Z,4.73
2023-03-28T00:19:40.592Z,5.57
2023-03-28T00:22:09.210Z,6.07
2023-03-28T00:24:39.047Z,5.73
2023-03-28T00:27:09.217Z,4.77
2023-03-28T00:29:37.500Z,5.13
2023-03-28T00:32:06.692Z,4.73
2023-03-28T00:34:34.985Z,5.57
2023-03-28T00:37:03.764Z,5.10
2023-03-28T00:39:32.187Z,5.10
2023-03-28T00:42:02.800Z,4.87
2023-03-28T00:44:47.371Z,4.07
2023-03-28T00:47:36.783Z,4.60
2023-03-28T00:50:11.016Z,4.33
2023-03-28T00:52:59.570Z,5.43
2023-03-28T00:55:31.792Z,4.47
2023-03-28T00:58:17.146Z,4.03
2023-03-28T01:00:47.419Z,4.37
2023-03-28T01:03:16.771Z,4.63
2023-03-28T01:05:47.644Z,4.27
2023-03-28T01:08:19.958Z,3.83
2023-03-28T01:10:49.050Z,3.87
2023-03-28T01:13:20.266Z,3.73
2023-03-28T01:15:52.087Z,4.27
2023-03-28T01:18:23.932Z,3.90
2023-03-28T01:21:14.509Z,4.30
2023-03-28T01:24:33.244Z,3.23
2023-03-28T01:27:08.155Z,3.70
2023-03-28T01:30:07.784Z,3.60
2023-03-28T01:33:09.737Z,2.93
2023-03-28T01:36:08.633Z,2.93
2023-03-28T01:38:48.117Z,3.53
2023-03-28T01:41:23.654Z,3.50
2023-03-28T01:43:58.964Z,3.20
2023-03-28T01:46:30.878Z,3.73
2023-03-28T01:49:05.789Z,3.47
2023-03-28T01:51:51.008Z,3.47
2023-03-28T01:54:31.695Z,3.00
2023-03-28T01:57:07.341Z,3.47
2023-03-28T01:59:41.169Z,2.60
2023-03-28T02:02:20.590Z,2.70
2023-03-28T02:04:51.125Z,3.17
2023-03-28T02:07:24.696Z,2.90
2023-03-28T02:09:57.517Z,2.80
2023-03-28T02:12:31.953Z,3.07
2023-03-28T02:15:04.987Z,3.67
2023-03-28T02:17:39.419Z,3.37
2023-03-28T02:20:11.814Z,2.10
2023-03-28T02:22:46.480Z,2.40
2023-03-28T02:25:16.647Z,2.30
2023-03-28T02:27:47.344Z,2.67
2023-03-28T02:30:16.235Z,2.60
2023-03-28T02:32:50.448Z,2.07
2023-03-28T02:35:25.133Z,1.73
2023-03-28T02:37:58.751Z,1.97
2023-03-28T02:40:41.646Z,1.90
2023-03-28T02:43:28.881Z,1.63
2023-03-28T02:46:20.981Z,1.83
2023-03-28T02:49:03.086Z,1.80
2023-03-28T02:51:36.888Z,1.60
2023-03-28T02:54:19.789Z,1.73
2023-03-28T02:57:01.157Z,1.97
2023-03-28T02:59:36.120Z,2.03
2023-03-28T03:02:05.283Z,1.77
2023-03-28T03:04:33.799Z,1.23
2023-03-28T03:07:02.624Z,1.90
2023-03-28T03:09:31.208Z,1.90
2023-03-28T03:12:00.814Z,1.27
2023-03-28T03:14:29.398Z,1.23
2023-03-28T03:16:57.567Z,1.30
2023-03-28T03:19:26.379Z,1.47
2023-03-28T03:21:55.360Z,1.50
2023-03-28T03:24:25.070Z,1.40
2023-03-28T03:26:53.512Z,1.63
2023-03-28T03:29:23.317Z,1.30
2023-03-28T03:31:51.738Z,1.30
2023-03-28T03:34:20.881Z,1.27
2023-03-28T03:36:50.006Z,1.40
2023-03-28T03:39:18.709Z,1.27
2023-03-28T03:41:46.848Z,1.27
2023-03-28T03:44:15.421Z,1.40
2023-03-28T03:46:45.379Z,1.30
2023-03-28T03:49:14.207Z,1.33
2023-03-28T03:51:42.372Z,1.40
2023-03-28T03:54:11.701Z,1.40
2023-03-28T03:56:40.007Z,1.60
2023-03-28T03:59:08.533Z,1.60
2023-03-28T04:01:39.486Z,1.47
2023-03-28T04:04:09.781Z,1.73
2023-03-28T04:06:38.793Z,1.87
2023-03-28T04:09:07.887Z,1.77
2023-03-28T04:11:36.377Z,1.57
2023-03-28T04:14:05.518Z,1.90
2023-03-28T04:16:40.729Z,2.30
2023-03-28T04:19:13.919Z,1.93
2023-03-28T04:21:43.063Z,1.60
2023-03-28T04:24:15.440Z,1.60
2023-03-28T04:26:45.981Z,1.73
2023-03-28T04:29:14.726Z,1.80
2023-03-28T04:31:50.509Z,1.40
2023-03-28T04:34:25.630Z,1.57
2023-03-28T04:36:53.934Z,1.73
2023-03-28T04:39:22.859Z,1.27
2023-03-28T04:41:55.582Z,1.73
2023-03-28T04:44:24.571Z,1.60
2023-03-28T04:46:52.950Z,1.63
2023-03-28T04:49:22.931Z,0.90
2023-03-28T04:51:51.695Z,1.33
2023-03-28T04:54:20.916Z,1.50
2023-03-28T04:56:49.520Z,1.60
2023-03-28T04:59:18.988Z,1.13
2023-03-28T05:01:50.110Z,1.53
2023-03-28T05:04:18.879Z,1.80
2023-03-28T05:06:50.230Z,1.20
2023-03-28T05:09:19.720Z,1.30
2023-03-28T05:11:48.102Z,1.47
2023-03-28T05:14:16.880Z,1.03
2023-03-28T05:16:45.102Z,1.30
2023-03-28T05:19:13.966Z,1.60
2023-03-28T05:21:42.267Z,1.40
2023-03-28T05:24:12.438Z,1.60
2023-03-28T05:26:40.684Z,1.30
2023-03-28T05:29:09.168Z,1.40
2023-03-28T05:31:37.832Z,1.23
2023-03-28T05:34:06.462Z,1.13
2023-03-28T05:36:35.113Z,2.00
2023-03-28T05:39:05.149Z,1.83
2023-03-28T05:41:34.870Z,1.20
2023-03-28T05:44:04.562Z,1.40
2023-03-28T05:46:32.844Z,1.20
2023-03-28T05:49:01.421Z,1.30
2023-03-28T05:51:29.742Z,1.07
2023-03-28T05:53:58.298Z,1.60
2023-03-28T05:56:26.565Z,1.50
2023-03-28T05:58:56.464Z,1.57
2023-03-28T06:01:29.143Z,1.43
2023-03-28T06:03:58.487Z,1.67
2023-03-28T06:06:27.537Z,1.20
2023-03-28T06:08:56.167Z,1.37
2023-03-28T06:11:24.502Z,1.53
2023-03-28T06:13:53.387Z,1.10
2023-03-28T06:16:30.471Z,1.27
2023-03-28T06:19:14.400Z,1.10
2023-03-28T06:21:45.770Z,1.30
2023-03-28T06:24:14.587Z,1.20
2023-03-28T06:26:43.075Z,1.10
2023-03-28T06:29:12.137Z,1.40
2023-03-28T06:31:41.780Z,1.40
2023-03-28T06:34:10.925Z,1.03
2023-03-28T06:36:39.723Z,1.30
2023-03-28T06:39:08.362Z,0.87
2023-03-28T06:41:36.783Z,0.93
2023-03-28T06:44:05.946Z,1.17
2023-03-28T06:46:34.558Z,1.07
2023-03-28T06:49:04.487Z,1.40
2023-03-28T06:51:33.135Z,0.93
2023-03-28T06:54:02.000Z,1.17
2023-03-28T06:56:30.538Z,1.20
2023-03-28T06:58:59.129Z,1.23
2023-03-28T07:01:27.634Z,1.10
2023-03-28T07:03:59.657Z,1.03
2023-03-28T07:06:35.728Z,1.50
2023-03-28T07:09:06.339Z,1.23
2023-03-28T07:11:35.399Z,1.20
2023-03-28T07:14:04.012Z,1.47
2023-03-28T07:16:32.604Z,1.20
2023-03-28T07:19:01.396Z,1.17
2023-03-28T07:21:31.117Z,1.13
2023-03-28T07:23:59.699Z,1.50
2023-03-28T07:26:28.389Z,1.23
2023-03-28T07:28:57.314Z,1.08
2023-03-28T07:31:28.470Z,1.42
2023-03-28T07:33:58.222Z,0.95
2023-03-28T07:36:28.981Z,1.13
2023-03-28T07:38:58.956Z,1.00
2023-03-28T07:41:27.515Z,0.97
2023-03-28T07:43:56.408Z,0.88
2023-03-28T07:46:25.898Z,1.10
2023-03-28T07:49:00.871Z,0.80
2023-03-28T07:51:29.267Z,1.15
2023-03-28T07:53:59.720Z,1.38
2023-03-28T07:56:28.327Z,1.20
2023-03-28T07:58:56.947Z,1.13
2023-03-28T08:01:26.394Z,1.25
2023-03-28T08:03:55.095Z,1.17
2023-03-28T08:06:32.234Z,1.35
2023-03-28T08:09:02.721Z,1.00
2023-03-28T08:11:31.191Z,1.00
2023-03-28T08:13:59.767Z,0.90
2023-03-28T08:16:28.608Z,0.90
2023-03-28T08:19:09.986Z,0.80
2023-03-28T08:21:39.968Z,0.90
2023-03-28T08:24:12.936Z,0.90
2023-03-28T08:26:48.627Z,1.10
2023-03-28T08:29:17.637Z,1.05
2023-03-28T08:31:46.219Z,0.90
2023-03-28T08:34:15.128Z,0.90
2023-03-28T08:36:43.349Z,1.75
2023-03-28T08:39:13.273Z,0.80
2023-03-28T08:41:57.129Z,0.90
2023-03-28T08:45:04.055Z,1.07
2023-03-28T08:47:34.319Z,0.80
2023-03-28T08:50:12.358Z,1.20
2023-03-28T08:52:42.833Z,0.95
2023-03-28T08:55:25.073Z,1.40
2023-03-28T08:57:56.361Z,1.23
2023-03-28T09:00:28.599Z,1.30
2023-03-28T09:02:57.323Z,0.93
2023-03-28T09:05:36.681Z,0.90
2023-03-28T09:08:20.179Z,1.17
2023-03-28T09:10:57.840Z,1.25
2023-03-28T09:13:37.002Z,1.10
2023-03-28T09:16:20.123Z,1.20
2023-03-28T09:19:12.362Z,1.30
2023-03-28T09:21:59.593Z,1.20
2023-03-28T09:24:48.093Z,0.73
2023-03-28T09:27:25.307Z,1.20
2023-03-28T09:29:57.876Z,0.80
2023-03-28T09:32:33.939Z,0.90
2023-03-28T09:35:03.090Z,1.02
2023-03-28T09:37:36.602Z,0.90
2023-03-28T09:40:14.714Z,1.10
2023-03-28T09:42:53.221Z,1.10
2023-03-28T09:45:35.072Z,1.10
2023-03-28T09:48:05.105Z,0.88
2023-03-28T09:50:33.848Z,0.85
2023-03-28T09:53:02.694Z,0.90
2023-03-28T09:55:32.470Z,1.10
2023-03-28T09:58:04.424Z,0.90
2023-03-28T10:00:36.587Z,1.15
2023-03-28T10:03:08.271Z,1.10
2023-03-28T10:05:40.832Z,0.90
2023-03-28T10:08:23.928Z,0.75
2023-03-28T10:11:02.359Z,0.80
2023-03-28T10:13:38.995Z,1.17
2023-03-28T10:16:08.911Z,0.90
2023-03-28T10:18:40.604Z,2.10
2023-03-28T10:21:15.317Z,3.47
2023-03-28T10:23:50.932Z,4.38
2023-03-28T10:26:23.727Z,6.03
2023-03-28T10:28:55.694Z,22.53
2023-03-28T10:31:29.778Z,7.00
2023-03-28T10:34:00.366Z,8.80
2023-03-28T10:36:31.454Z,30.33
2023-03-28T10:39:01.392Z,13.50
2023-03-28T10:41:30.809Z,9.20
2023-03-28T10:44:01.249Z,7.82
2023-03-28T10:46:33.920Z,6.50
2023-03-28T10:49:06.021Z,5.50
2023-03-28T10:51:38.779Z,4.10
2023-03-28T10:54:50.477Z,3.27
2023-03-28T10:57:26.744Z,13.93
2023-03-28T11:00:06.762Z,28.93
2023-03-28T11:02:58.957Z,39.90
2023-03-28T11:05:36.017Z,19.57
2023-03-28T11:08:21.877Z,20.33
2023-03-28T11:10:58.783Z,13.57
2023-03-28T11:13:35.143Z,11.60
2023-03-28T11:16:15.414Z,7.55
2023-03-28T11:18:57.499Z,8.00
2023-03-28T11:21:32.999Z,7.20
2023-03-28T11:24:12.186Z,6.97
2023-03-28T11:26:51.457Z,5.57
2023-03-28T11:29:40.443Z,6.50
2023-03-28T11:32:19.591Z,5.80
2023-03-28T11:35:07.224Z,4.00
2023-03-28T11:37:41.097Z,4.15
2023-03-28T11:40:18.653Z,3.80
2023-03-28T11:42:52.397Z,3.60
2023-03-28T11:45:46.683Z,2.30
2023-03-28T11:48:24.506Z,2.83
2023-03-28T11:51:03.276Z,2.25
2023-03-28T11:53:38.676Z,1.93
2023-03-28T11:56:16.927Z,2.17
2023-03-28T11:58:48.210Z,1.83
2023-03-28T12:01:19.947Z,2.00
2023-03-28T12:04:01.310Z,1.60
2023-03-28T12:06:34.975Z,1.90
2023-03-28T12:09:12.524Z,1.60
2023-03-28T12:11:46.590Z,2.13
2023-03-28T12:14:34.676Z,2.20
2023-03-28T12:17:10.452Z,3.03
2023-03-28T12:19:41.812Z,2.13
2023-03-28T12:22:18.862Z,2.87
2023-03-28T12:24:54.741Z,2.67
2023-03-28T12:27:37.098Z,3.50
2023-03-28T12:30:13.659Z,7.73
2023-03-28T12:32:51.160Z,2.87
2023-03-28T12:35:27.121Z,3.05
2023-03-28T12:38:06.962Z,2.37
2023-03-28T12:40:53.013Z,1.53
2023-03-28T12:43:26.077Z,1.48
2023-03-28T12:46:01.273Z,1.80
2023-03-28T12:48:35.146Z,1.90
2023-03-28T12:51:12.591Z,1.27
2023-03-28T12:54:00.359Z,1.30
2023-03-28T12:56:29.542Z,1.13
2023-03-28T12:58:57.931Z,1.03
2023-03-28T13:01:36.669Z,1.00
2023-03-28T13:04:23.345Z,1.53
2023-03-28T13:07:05.477Z,1.42
2023-03-28T13:09:57.168Z,1.20
2023-03-28T13:12:32.613Z,1.53
2023-03-28T13:15:03.270Z,1.60
2023-03-28T13:17:35.119Z,1.80
2023-03-28T13:20:09.997Z,1.38
2023-03-28T13:22:50.333Z,1.67
2023-03-28T13:25:32.322Z,5.43
2023-03-28T13:28:02.675Z,2.40
2023-03-28T13:30:32.407Z,2.67
2023-03-28T13:33:04.013Z,3.63
2023-03-28T13:35:47.176Z,4.53
2023-03-28T13:38:35.061Z,6.00
2023-03-28T13:41:06.612Z,18.25
2023-03-28T13:43:43.510Z,14.27
2023-03-28T13:46:16.215Z,8.37
2023-03-28T13:48:50.967Z,8.97
2023-03-28T13:51:23.942Z,11.50
2023-03-28T13:53:54.276Z,10.30
2023-03-28T13:56:28.950Z,11.23
2023-03-28T13:59:02.985Z,15.87
2023-03-28T14:01:36.453Z,11.30
2023-03-28T14:04:12.299Z,9.30
2023-03-28T14:06:42.240Z,8.38
2023-03-28T14:09:19.441Z,7.00
2023-03-28T14:11:48.924Z,6.78
2023-03-28T14:14:23.567Z,15.63
2023-03-28T14:16:52.753Z,8.13
2023-03-28T14:19:24.980Z,9.63
2023-03-28T14:21:54.740Z,7.85
2023-03-28T14:24:27.934Z,7.20
2023-03-28T14:27:07.054Z,6.25
2023-03-28T14:29:35.675Z,6.50
2023-03-28T14:32:25.675Z,9.65
2023-03-28T14:34:56.467Z,9.87
2023-03-28T14:37:25.736Z,8.03
2023-03-28T14:39:56.461Z,8.73
2023-03-28T14:42:28.497Z,8.83
2023-03-28T14:44:57.218Z,9.02
2023-03-28T14:47:29.092Z,8.65
2023-03-28T14:49:58.266Z,12.15
2023-03-28T14:52:30.201Z,8.00
2023-03-28T14:55:01.913Z,6.65
2023-03-28T14:57:31.226Z,5.45
2023-03-28T15:00:01.224Z,5.15
2023-03-28T15:02:35.133Z,5.85
2023-03-28T15:05:07.780Z,4.88
2023-03-28T15:07:37.979Z,5.07
2023-03-28T15:10:11.227Z,4.35
2023-03-28T15:12:46.806Z,4.85
2023-03-28T15:15:18.620Z,4.88
2023-03-28T15:17:47.503Z,8.32
2023-03-28T15:20:20.059Z,15.80
2023-03-28T15:22:51.834Z,18.08
2023-03-28T15:25:22.311Z,19.35
2023-03-28T15:27:56.051Z,18.35
2023-03-28T15:30:25.816Z,22.23
2023-03-28T15:33:01.284Z,18.87
2023-03-28T15:35:33.192Z,16.67
2023-03-28T15:38:03.260Z,15.82
2023-03-28T15:40:38.949Z,12.40
2023-03-28T15:43:08.051Z,10.25
2023-03-28T15:45:43.120Z,16.13
2023-03-28T15:48:17.633Z,18.08
2023-03-28T15:50:51.515Z,15.93
2023-03-28T15:53:21.008Z,14.57
2023-03-28T15:55:51.632Z,19.65
2023-03-28T15:58:23.308Z,11.73
2023-03-28T16:00:53.869Z,12.25
2023-03-28T16:03:35.793Z,8.57
2023-03-28T16:06:30.870Z,7.63
2023-03-28T16:09:16.296Z,6.10
2023-03-28T16:11:48.015Z,5.30
2023-03-28T16:14:19.315Z,6.30
2023-03-28T16:16:48.089Z,5.57
2023-03-28T16:19:21.008Z,8.63
2023-03-28T16:21:49.785Z,5.10
2023-03-28T16:24:19.785Z,4.70
2023-03-28T16:26:49.965Z,4.50
2023-03-28T16:29:18.232Z,4.03
2023-03-28T16:31:46.763Z,11.27
2023-03-28T16:34:15.129Z,15.33
2023-03-28T16:36:43.678Z,10.07
2023-03-28T16:39:12.399Z,8.83
2023-03-28T16:41:40.956Z,12.30
2023-03-28T16:44:11.227Z,9.10
2023-03-28T16:46:39.864Z,6.43
2023-03-28T16:49:08.303Z,6.83
2023-03-28T16:51:36.903Z,6.27
2023-03-28T16:54:05.481Z,7.73
2023-03-28T16:56:34.103Z,7.83
2023-03-28T16:59:04.076Z,11.03
2023-03-28T17:01:34.417Z,7.83
2023-03-28T17:04:02.760Z,8.40
2023-03-28T17:06:31.458Z,8.13
2023-03-28T17:08:59.772Z,7.87
2023-03-28T17:11:28.761Z,8.90
2023-03-28T17:13:57.818Z,9.90
2023-03-28T17:16:27.359Z,8.43
2023-03-28T17:18:57.061Z,12.43
2023-03-28T17:21:25.555Z,15.00
2023-03-28T17:23:55.382Z,17.47
2023-03-28T17:26:23.868Z,18.57
2023-03-28T17:28:52.297Z,16.07
2023-03-28T17:31:21.883Z,16.53
2023-03-28T17:33:50.482Z,17.83
2023-03-28T17:36:22.709Z,19.07
2023-03-28T17:38:51.948Z,13.57
2023-03-28T17:41:23.114Z,14.70
2023-03-28T17:43:52.142Z,16.40
2023-03-28T17:46:21.432Z,15.77
2023-03-28T17:48:49.959Z,16.57
2023-03-28T17:51:20.587Z,12.93
2023-03-28T17:53:48.789Z,11.87
2023-03-28T17:56:18.166Z,11.57
2023-03-28T17:58:47.668Z,10.77
2023-03-28T18:01:18.602Z,11.07
2023-03-28T18:03:47.228Z,9.10
2023-03-28T18:06:15.878Z,8.63
2023-03-28T18:08:45.520Z,8.53
2023-03-28T18:11:17.752Z,7.80
2023-03-28T18:13:46.678Z,6.97
2023-03-28T18:16:18.138Z,7.00
2023-03-28T18:18:46.749Z,7.20
2023-03-28T18:21:15.641Z,9.07
2023-03-28T18:23:45.504Z,9.87
2023-03-28T18:26:14.125Z,9.07
2023-03-28T18:28:42.873Z,8.63
2023-03-28T18:31:13.507Z,9.00
2023-03-28T18:33:42.941Z,8.13
2023-03-28T18:36:12.301Z,8.00
2023-03-28T18:38:42.344Z,6.73
2023-03-28T18:41:13.491Z,6.90
2023-03-28T18:43:43.422Z,6.80
2023-03-28T18:46:16.009Z,6.03
2023-03-28T18:48:45.482Z,6.83
2023-03-28T18:51:14.159Z,7.53
2023-03-28T18:53:42.406Z,7.13
2023-03-28T18:56:13.525Z,5.87
2023-03-28T18:58:41.918Z,5.53
2023-03-28T19:01:11.484Z,6.77
2023-03-28T19:03:42.443Z,6.87
2023-03-28T19:06:12.801Z,6.83
2023-03-28T19:08:41.470Z,7.27
2023-03-28T19:11:13.273Z,6.60
2023-03-28T19:13:42.638Z,7.47
2023-03-28T19:16:13.444Z,6.67
2023-03-28T19:18:43.789Z,7.00
2023-03-28T19:21:13.130Z,8.53
2023-03-28T19:23:41.923Z,6.93
2023-03-28T19:26:13.634Z,7.73
2023-03-28T19:28:41.972Z,7.43
2023-03-28T19:31:12.875Z,7.60
2023-03-28T19:33:41.719Z,7.87
2023-03-28T19:36:10.932Z,8.30
2023-03-28T19:38:40.359Z,7.87
2023-03-28T19:41:15.703Z,9.90
2023-03-28T19:43:46.263Z,7.77
2023-03-28T19:46:19.743Z,8.37
2023-03-28T19:48:48.042Z,7.77
2023-03-28T19:51:16.907Z,7.57
2023-03-28T19:53:45.136Z,7.50
2023-03-28T19:56:14.195Z,6.87
2023-03-28T19:58:42.483Z,5.90
2023-03-28T20:01:12.800Z,6.40
2023-03-28T20:03:41.320Z,6.60
2023-03-28T20:06:13.019Z,5.80
2023-03-28T20:08:42.739Z,4.93
2023-03-28T20:11:12.822Z,4.30
2023-03-28T20:13:41.622Z,5.67
2023-03-28T20:16:13.471Z,4.80
2023-03-28T20:18:42.705Z,4.37
2023-03-28T20:21:13.161Z,4.43
2023-03-28T20:23:41.968Z,4.47
2023-03-28T20:26:16.114Z,3.83
2023-03-28T20:28:46.246Z,3.47
2023-03-28T20:31:18.798Z,4.43
2023-03-28T20:33:47.111Z,4.67
2023-03-28T20:36:15.978Z,4.47
2023-03-28T20:38:44.278Z,4.17
2023-03-28T20:41:13.345Z,4.40
2023-03-28T20:43:46.478Z,4.50
2023-03-28T20:46:19.122Z,4.77
2023-03-28T20:48:52.843Z,4.10
2023-03-28T20:51:23.603Z,4.93
2023-03-28T20:53:58.639Z,3.30
2023-03-28T20:56:29.088Z,4.10
2023-03-28T20:58:59.612Z,5.63
2023-03-28T21:01:33.095Z,5.20
2023-03-28T21:04:02.311Z,4.93
2023-03-28T21:06:36.053Z,5.20
2023-03-28T21:09:06.999Z,6.30
2023-03-28T21:11:37.335Z,6.10
2023-03-28T21:14:06.566Z,6.17
2023-03-28T21:16:37.571Z,6.20
2023-03-28T21:19:06.140Z,6.10
2023-03-28T21:21:34.671Z,5.57
2023-03-28T21:24:04.054Z,5.80
2023-03-28T21:26:32.694Z,4.73
2023-03-28T21:29:01.119Z,4.13
2023-03-28T21:31:30.894Z,4.80
2023-03-28T21:34:01.028Z,5.17
2023-03-28T21:36:29.995Z,4.63
2023-03-28T21:38:58.374Z,4.43
2023-03-28T21:41:27.973Z,4.13
2023-03-28T21:43:56.783Z,3.87
2023-03-28T21:46:25.731Z,4.20
2023-03-28T21:48:54.141Z,3.87
2023-03-28T21:51:24.021Z,3.73
2023-03-28T21:53:52.292Z,3.53
2023-03-28T21:56:21.335Z,3.10
2023-03-28T21:58:49.514Z,3.90
2023-03-28T22:01:18.587Z,4.07
2023-03-28T22:03:47.203Z,3.33
2023-03-28T22:06:17.664Z,3.20
2023-03-28T22:08:51.961Z,3.07
2023-03-28T22:11:27.413Z,3.53
2023-03-28T22:14:01.233Z,3.40
2023-03-28T22:16:31.315Z,3.40
2023-03-28T22:19:00.840Z,4.33
2023-03-28T22:21:31.522Z,3.23
2023-03-28T22:24:03.436Z,3.63
2023-03-28T22:26:32.240Z,3.30
2023-03-28T22:29:00.535Z,3.50
2023-03-28T22:31:29.485Z,3.60
2023-03-28T22:33:57.770Z,3.07
2023-03-28T22:36:26.297Z,3.37
2023-03-28T22:38:55.429Z,3.27
2023-03-28T22:41:25.473Z,3.53
2023-03-28T22:43:53.666Z,3.30
2023-03-28T22:46:22.280Z,3.23
2023-03-28T22:48:54.394Z,3.40
2023-03-28T22:51:27.805Z,3.23
2023-03-28T22:54:00.323Z,3.37
2023-03-28T22:56:30.670Z,3.17
2023-03-28T22:59:01.213Z,3.57
2023-03-28T23:01:30.236Z,2.70
2023-03-28T23:03:58.705Z,3.83
2023-03-28T23:06:27.256Z,3.27
2023-03-28T23:08:55.473Z,3.47
2023-03-28T23:11:23.912Z,3.10
2023-03-28T23:13:53.549Z,3.30
2023-03-28T23:16:22.104Z,3.43
2023-03-28T23:18:50.794Z,3.23
2023-03-28T23:21:19.568Z,3.10
2023-03-28T23:23:48.292Z,2.83
2023-03-28T23:26:16.823Z,2.83
2023-03-28T23:28:45.202Z,2.50
2023-03-28T23:31:15.458Z,2.53
2023-03-28T23:33:44.639Z,3.00
2023-03-28T23:36:14.114Z,2.83
2023-03-28T23:38:42.784Z,2.83
2023-03-28T23:41:11.239Z,2.50
2023-03-28T23:43:39.578Z,2.80
2023-03-28T23:46:09.084Z,3.80
2023-03-28T23:48:38.721Z,3.00
2023-03-28T23:51:07.988Z,2.77
2023-03-28T23:53:36.889Z,3.20
2023-03-28T23:56:06.070Z,3.07
2023-03-28T23:58:34.558Z,3.27
